Decoded Metar for KFOD (FORT DODGE in IA, USA) (IATA:FOD) | Meteo·Mobile Aviation Weather
aviador You're here:

KFOD Decoded Metar

FORT DODGE in IA, USA
Report Time2019-10-18 12:56:00
UTC Time2019-10-18 13:43:31
Flight Rules vfr VFR
Wind150° at 10 kt
W.Decomp.*RWY 12: 8.8 kt HW 4.7 kt RCW
RWY 06: 0.3 kt HW 10.0 kt RCW
Visibility9999 m
Phenomena:N/A
Clouds:N/A
Expected CloudBase > 800 ft AGL from Temp-Dew spread
CeilingNone
Temp08°C (ISA -5)
Dew Point06°C (87% RH)
AAT3.5°C
QNH1007 hPa
Density Alt938 ft
Elevation1,165 ft
Report Wrong Elevation
Raw Report
KFOD 181256Z AUTO 15010KT 120V180 10SM CLR 08/06 A2975 RMK AO2
SLP104 T00780056 $=

Extra information for KFOD:More info

Metar Taf Metar & Taf Last 4 Metars F.Rules Stats Wind Profile Meteogram Temp Stats Airport Information Weather charts Add Link Nearby VenuesMetar ALERT Operation Metar Decoded Social comments

AIRNAV info for KFOD